sensor_id;sensor_type;location;lat;lon;timestamp;P1;durP1;ratioP1;P2;durP2;ratioP2
10805;SDS011;5455;53.224;6.000;2022-11-11T00:01:14;5.37;;;3.33;;
10805;SDS011;5455;53.224;6.000;2022-11-11T00:04:02;6.60;;;3.57;;
10805;SDS011;5455;53.224;6.000;2022-11-11T00:06:47;7.53;;;3.80;;
10805;SDS011;5455;53.224;6.000;2022-11-11T00:09:33;6.20;;;3.20;;
10805;SDS011;5455;53.224;6.000;2022-11-11T00:12:20;8.60;;;3.13;;
10805;SDS011;5455;53.224;6.000;2022-11-11T00:15:11;8.37;;;3.80;;
10805;SDS011;5455;53.224;6.000;2022-11-11T00:17:57;7.40;;;2.83;;
10805;SDS011;5455;53.224;6.000;2022-11-11T00:21:01;8.40;;;3.83;;
10805;SDS011;5455;53.224;6.000;2022-11-11T00:24:16;7.80;;;3.73;;
10805;SDS011;5455;53.224;6.000;2022-11-11T00:27:23;5.90;;;3.70;;
10805;SDS011;5455;53.224;6.000;2022-11-11T00:30:09;7.43;;;3.83;;
10805;SDS011;5455;53.224;6.000;2022-11-11T00:32:55;7.83;;;4.03;;
10805;SDS011;5455;53.224;6.000;2022-11-11T00:35:40;7.57;;;3.73;;
10805;SDS011;5455;53.224;6.000;2022-11-11T00:38:38;8.87;;;3.90;;
10805;SDS011;5455;53.224;6.000;2022-11-11T00:41:34;6.60;;;3.80;;
10805;SDS011;5455;53.224;6.000;2022-11-11T00:44:19;9.43;;;3.90;;
10805;SDS011;5455;53.224;6.000;2022-11-11T00:47:04;7.23;;;3.80;;
10805;SDS011;5455;53.224;6.000;2022-11-11T00:50:13;6.63;;;3.40;;
10805;SDS011;5455;53.224;6.000;2022-11-11T00:53:19;8.60;;;3.47;;
10805;SDS011;5455;53.224;6.000;2022-11-11T00:56:12;9.43;;;3.53;;
10805;SDS011;5455;53.224;6.000;2022-11-11T00:58:58;5.80;;;4.07;;
10805;SDS011;5455;53.224;6.000;2022-11-11T01:01:43;6.87;;;3.47;;
10805;SDS011;5455;53.224;6.000;2022-11-11T01:04:29;5.97;;;3.70;;
10805;SDS011;5455;53.224;6.000;2022-11-11T01:07:14;8.33;;;3.90;;
10805;SDS011;5455;53.224;6.000;2022-11-11T01:10:01;7.83;;;3.67;;
10805;SDS011;5455;53.224;6.000;2022-11-11T01:12:46;10.50;;;3.63;;
10805;SDS011;5455;53.224;6.000;2022-11-11T01:15:32;9.17;;;3.30;;
10805;SDS011;5455;53.224;6.000;2022-11-11T01:18:19;9.33;;;3.83;;
10805;SDS011;5455;53.224;6.000;2022-11-11T01:21:11;7.63;;;3.03;;
10805;SDS011;5455;53.224;6.000;2022-11-11T01:23:59;9.93;;;3.73;;
10805;SDS011;5455;53.224;6.000;2022-11-11T01:26:45;9.33;;;3.73;;
10805;SDS011;5455;53.224;6.000;2022-11-11T01:29:30;7.20;;;3.80;;
10805;SDS011;5455;53.224;6.000;2022-11-11T01:32:16;5.63;;;3.67;;
10805;SDS011;5455;53.224;6.000;2022-11-11T01:35:01;9.00;;;4.37;;
10805;SDS011;5455;53.224;6.000;2022-11-11T01:37:47;11.27;;;3.83;;
10805;SDS011;5455;53.224;6.000;2022-11-11T01:40:40;9.90;;;4.57;;
10805;SDS011;5455;53.224;6.000;2022-11-11T01:43:27;6.90;;;3.70;;
10805;SDS011;5455;53.224;6.000;2022-11-11T01:46:19;6.20;;;3.53;;
10805;SDS011;5455;53.224;6.000;2022-11-11T01:55:12;7.93;;;3.50;;
10805;SDS011;5455;53.224;6.000;2022-11-11T01:58:11;7.87;;;3.30;;
10805;SDS011;5455;53.224;6.000;2022-11-11T02:01:00;6.20;;;3.70;;
10805;SDS011;5455;53.224;6.000;2022-11-11T02:03:46;9.07;;;3.60;;
10805;SDS011;5455;53.224;6.000;2022-11-11T02:06:54;8.03;;;4.17;;
10805;SDS011;5455;53.224;6.000;2022-11-11T02:09:42;9.67;;;4.40;;
10805;SDS011;5455;53.224;6.000;2022-11-11T02:12:31;8.00;;;4.00;;
10805;SDS011;5455;53.224;6.000;2022-11-11T02:15:36;8.83;;;4.33;;
10805;SDS011;5455;53.224;6.000;2022-11-11T02:18:22;11.07;;;4.77;;
10805;SDS011;5455;53.224;6.000;2022-11-11T02:21:09;6.70;;;4.57;;
10805;SDS011;5455;53.224;6.000;2022-11-11T02:24:04;10.33;;;4.33;;
10805;SDS011;5455;53.224;6.000;2022-11-11T02:26:54;8.77;;;4.67;;
10805;SDS011;5455;53.224;6.000;2022-11-11T02:29:44;8.97;;;4.53;;
10805;SDS011;5455;53.224;6.000;2022-11-11T02:32:33;9.60;;;4.97;;
10805;SDS011;5455;53.224;6.000;2022-11-11T02:35:29;7.63;;;4.40;;
10805;SDS011;5455;53.224;6.000;2022-11-11T02:38:15;8.43;;;5.63;;
10805;SDS011;5455;53.224;6.000;2022-11-11T02:41:01;9.47;;;5.40;;
10805;SDS011;5455;53.224;6.000;2022-11-11T02:44:05;10.53;;;5.43;;
10805;SDS011;5455;53.224;6.000;2022-11-11T02:46:51;7.70;;;5.00;;
10805;SDS011;5455;53.224;6.000;2022-11-11T02:49:37;11.93;;;5.33;;
10805;SDS011;5455;53.224;6.000;2022-11-11T02:52:22;12.20;;;6.17;;
10805;SDS011;5455;53.224;6.000;2022-11-11T02:55:08;10.80;;;5.53;;
10805;SDS011;5455;53.224;6.000;2022-11-11T02:57:55;14.10;;;6.30;;
10805;SDS011;5455;53.224;6.000;2022-11-11T03:00:40;9.30;;;5.43;;
10805;SDS011;5455;53.224;6.000;2022-11-11T03:03:30;10.40;;;5.70;;
10805;SDS011;5455;53.224;6.000;2022-11-11T03:06:16;9.70;;;5.27;;
10805;SDS011;5455;53.224;6.000;2022-11-11T03:09:02;10.80;;;6.40;;
10805;SDS011;5455;53.224;6.000;2022-11-11T03:11:48;11.80;;;6.53;;
10805;SDS011;5455;53.224;6.000;2022-11-11T03:14:34;11.00;;;6.00;;
10805;SDS011;5455;53.224;6.000;2022-11-11T03:17:19;11.27;;;6.57;;
10805;SDS011;5455;53.224;6.000;2022-11-11T03:20:23;10.57;;;5.63;;
10805;SDS011;5455;53.224;6.000;2022-11-11T03:23:27;10.80;;;6.27;;
10805;SDS011;5455;53.224;6.000;2022-11-11T03:26:12;10.87;;;5.70;;
10805;SDS011;5455;53.224;6.000;2022-11-11T03:28:59;8.90;;;5.60;;
10805;SDS011;5455;53.224;6.000;2022-11-11T03:31:45;8.60;;;5.33;;
10805;SDS011;5455;53.224;6.000;2022-11-11T03:34:31;10.77;;;6.07;;
10805;SDS011;5455;53.224;6.000;2022-11-11T03:37:16;11.43;;;6.00;;
10805;SDS011;5455;53.224;6.000;2022-11-11T03:40:20;9.83;;;6.30;;
10805;SDS011;5455;53.224;6.000;2022-11-11T03:43:06;11.97;;;6.33;;
10805;SDS011;5455;53.224;6.000;2022-11-11T03:45:52;11.33;;;6.47;;
10805;SDS011;5455;53.224;6.000;2022-11-11T03:48:38;11.57;;;7.50;;
10805;SDS011;5455;53.224;6.000;2022-11-11T03:51:24;14.23;;;7.73;;
10805;SDS011;5455;53.224;6.000;2022-11-11T03:54:09;12.40;;;8.27;;
10805;SDS011;5455;53.224;6.000;2022-11-11T03:56:54;12.53;;;7.60;;
10805;SDS011;5455;53.224;6.000;2022-11-11T04:00:03;14.00;;;7.63;;
10805;SDS011;5455;53.224;6.000;2022-11-11T04:03:14;12.50;;;7.00;;
10805;SDS011;5455;53.224;6.000;2022-11-11T04:06:22;13.63;;;7.97;;
10805;SDS011;5455;53.224;6.000;2022-11-11T04:09:26;14.33;;;7.93;;
10805;SDS011;5455;53.224;6.000;2022-11-11T04:12:30;14.47;;;7.90;;
10805;SDS011;5455;53.224;6.000;2022-11-11T04:15:39;12.40;;;7.73;;
10805;SDS011;5455;53.224;6.000;2022-11-11T04:18:43;10.63;;;6.57;;
10805;SDS011;5455;53.224;6.000;2022-11-11T04:21:47;12.80;;;8.00;;
10805;SDS011;5455;53.224;6.000;2022-11-11T04:24:33;10.70;;;7.27;;
10805;SDS011;5455;53.224;6.000;2022-11-11T04:27:38;12.63;;;8.07;;
10805;SDS011;5455;53.224;6.000;2022-11-11T04:30:23;14.20;;;8.97;;
10805;SDS011;5455;53.224;6.000;2022-11-11T04:33:09;13.37;;;8.90;;
10805;SDS011;5455;53.224;6.000;2022-11-11T04:35:54;9.20;;;5.20;;
10805;SDS011;5455;53.224;6.000;2022-11-11T04:38:39;13.97;;;8.33;;
10805;SDS011;5455;53.224;6.000;2022-11-11T04:41:43;13.67;;;8.13;;
10805;SDS011;5455;53.224;6.000;2022-11-11T04:44:48;13.83;;;8.27;;
10805;SDS011;5455;53.224;6.000;2022-11-11T04:50:44;15.27;;;8.07;;
10805;SDS011;5455;53.224;6.000;2022-11-11T04:53:29;12.93;;;6.90;;
10805;SDS011;5455;53.224;6.000;2022-11-11T04:56:15;15.47;;;9.07;;
10805;SDS011;5455;53.224;6.000;2022-11-11T04:59:18;14.30;;;9.23;;
10805;SDS011;5455;53.224;6.000;2022-11-11T05:02:04;16.87;;;9.30;;
10805;SDS011;5455;53.224;6.000;2022-11-11T05:05:08;15.53;;;9.93;;
10805;SDS011;5455;53.224;6.000;2022-11-11T05:07:53;15.13;;;9.10;;
10805;SDS011;5455;53.224;6.000;2022-11-11T05:10:58;13.93;;;9.33;;
10805;SDS011;5455;53.224;6.000;2022-11-11T05:13:43;17.87;;;11.23;;
10805;SDS011;5455;53.224;6.000;2022-11-11T05:16:48;15.80;;;8.43;;
10805;SDS011;5455;53.224;6.000;2022-11-11T05:19:53;16.27;;;10.07;;
10805;SDS011;5455;53.224;6.000;2022-11-11T05:22:57;16.87;;;9.77;;
10805;SDS011;5455;53.224;6.000;2022-11-11T05:25:42;15.53;;;9.73;;
10805;SDS011;5455;53.224;6.000;2022-11-11T05:28:28;14.23;;;9.77;;
10805;SDS011;5455;53.224;6.000;2022-11-11T05:31:14;14.50;;;10.27;;
10805;SDS011;5455;53.224;6.000;2022-11-11T05:33:59;15.00;;;9.87;;
10805;SDS011;5455;53.224;6.000;2022-11-11T05:36:44;15.10;;;9.87;;
10805;SDS011;5455;53.224;6.000;2022-11-11T05:39:29;16.50;;;10.37;;
10805;SDS011;5455;53.224;6.000;2022-11-11T05:42:15;16.40;;;10.00;;
10805;SDS011;5455;53.224;6.000;2022-11-11T05:45:01;17.27;;;9.27;;
10805;SDS011;5455;53.224;6.000;2022-11-11T05:47:46;18.00;;;9.40;;
10805;SDS011;5455;53.224;6.000;2022-11-11T05:50:31;12.27;;;7.20;;
10805;SDS011;5455;53.224;6.000;2022-11-11T05:53:17;16.27;;;10.17;;
10805;SDS011;5455;53.224;6.000;2022-11-11T05:56:08;16.30;;;8.57;;
10805;SDS011;5455;53.224;6.000;2022-11-11T05:58:54;16.13;;;9.00;;
10805;SDS011;5455;53.224;6.000;2022-11-11T06:01:39;15.70;;;9.10;;
10805;SDS011;5455;53.224;6.000;2022-11-11T06:04:25;12.97;;;8.67;;
10805;SDS011;5455;53.224;6.000;2022-11-11T06:07:11;15.77;;;8.77;;
10805;SDS011;5455;53.224;6.000;2022-11-11T06:09:57;17.90;;;10.23;;
10805;SDS011;5455;53.224;6.000;2022-11-11T06:13:03;16.83;;;9.93;;
10805;SDS011;5455;53.224;6.000;2022-11-11T06:15:55;13.17;;;7.27;;
10805;SDS011;5455;53.224;6.000;2022-11-11T06:18:41;16.37;;;10.10;;
10805;SDS011;5455;53.224;6.000;2022-11-11T06:21:27;16.97;;;9.60;;
10805;SDS011;5455;53.224;6.000;2022-11-11T06:24:12;16.87;;;10.10;;
10805;SDS011;5455;53.224;6.000;2022-11-11T06:26:58;16.37;;;9.10;;
10805;SDS011;5455;53.224;6.000;2022-11-11T06:29:44;15.07;;;9.33;;
10805;SDS011;5455;53.224;6.000;2022-11-11T06:32:29;17.90;;;9.40;;
10805;SDS011;5455;53.224;6.000;2022-11-11T06:35:14;17.57;;;9.63;;
10805;SDS011;5455;53.224;6.000;2022-11-11T06:38:04;19.50;;;9.43;;
10805;SDS011;5455;53.224;6.000;2022-11-11T06:40:51;14.27;;;8.53;;
10805;SDS011;5455;53.224;6.000;2022-11-11T06:43:36;14.70;;;8.23;;
10805;SDS011;5455;53.224;6.000;2022-11-11T06:46:23;16.20;;;9.57;;
10805;SDS011;5455;53.224;6.000;2022-11-11T06:49:09;14.73;;;8.63;;
10805;SDS011;5455;53.224;6.000;2022-11-11T06:51:55;17.13;;;9.50;;
10805;SDS011;5455;53.224;6.000;2022-11-11T06:54:41;18.07;;;9.20;;
10805;SDS011;5455;53.224;6.000;2022-11-11T06:57:26;16.53;;;8.97;;
10805;SDS011;5455;53.224;6.000;2022-11-11T07:00:11;17.60;;;8.80;;
10805;SDS011;5455;53.224;6.000;2022-11-11T07:02:58;21.27;;;10.13;;
10805;SDS011;5455;53.224;6.000;2022-11-11T07:05:43;21.60;;;9.90;;
10805;SDS011;5455;53.224;6.000;2022-11-11T07:08:29;14.60;;;9.47;;
10805;SDS011;5455;53.224;6.000;2022-11-11T07:11:15;13.53;;;9.30;;
10805;SDS011;5455;53.224;6.000;2022-11-11T07:14:03;15.50;;;9.47;;
10805;SDS011;5455;53.224;6.000;2022-11-11T07:16:49;16.20;;;10.20;;
10805;SDS011;5455;53.224;6.000;2022-11-11T07:19:35;18.97;;;10.43;;
10805;SDS011;5455;53.224;6.000;2022-11-11T07:22:20;14.10;;;9.10;;
10805;SDS011;5455;53.224;6.000;2022-11-11T07:25:06;14.37;;;8.40;;
10805;SDS011;5455;53.224;6.000;2022-11-11T07:27:51;17.13;;;9.43;;
10805;SDS011;5455;53.224;6.000;2022-11-11T07:30:42;16.87;;;9.13;;
10805;SDS011;5455;53.224;6.000;2022-11-11T07:33:28;15.73;;;7.93;;
10805;SDS011;5455;53.224;6.000;2022-11-11T07:36:14;17.93;;;8.27;;
10805;SDS011;5455;53.224;6.000;2022-11-11T07:38:59;13.70;;;8.93;;
10805;SDS011;5455;53.224;6.000;2022-11-11T07:41:52;14.00;;;8.57;;
10805;SDS011;5455;53.224;6.000;2022-11-11T07:44:37;16.27;;;8.67;;
10805;SDS011;5455;53.224;6.000;2022-11-11T07:47:23;14.30;;;9.07;;
10805;SDS011;5455;53.224;6.000;2022-11-11T07:50:09;17.23;;;9.13;;
10805;SDS011;5455;53.224;6.000;2022-11-11T07:52:54;15.20;;;8.63;;
10805;SDS011;5455;53.224;6.000;2022-11-11T07:55:39;16.70;;;9.70;;
10805;SDS011;5455;53.224;6.000;2022-11-11T07:58:25;14.77;;;9.30;;
10805;SDS011;5455;53.224;6.000;2022-11-11T08:01:11;16.57;;;10.27;;
10805;SDS011;5455;53.224;6.000;2022-11-11T08:03:57;16.00;;;9.10;;
10805;SDS011;5455;53.224;6.000;2022-11-11T08:06:42;17.83;;;9.67;;
10805;SDS011;5455;53.224;6.000;2022-11-11T08:09:28;16.70;;;9.83;;
10805;SDS011;5455;53.224;6.000;2022-11-11T08:12:13;14.10;;;9.20;;
10805;SDS011;5455;53.224;6.000;2022-11-11T08:15:18;14.30;;;9.00;;
10805;SDS011;5455;53.224;6.000;2022-11-11T08:18:03;12.97;;;9.10;;
10805;SDS011;5455;53.224;6.000;2022-11-11T08:20:49;17.20;;;11.00;;
10805;SDS011;5455;53.224;6.000;2022-11-11T08:23:38;15.73;;;9.77;;
10805;SDS011;5455;53.224;6.000;2022-11-11T08:26:45;18.50;;;8.70;;
10805;SDS011;5455;53.224;6.000;2022-11-11T08:29:31;17.43;;;10.07;;
10805;SDS011;5455;53.224;6.000;2022-11-11T08:32:16;14.27;;;9.73;;
10805;SDS011;5455;53.224;6.000;2022-11-11T08:35:02;16.70;;;10.30;;
10805;SDS011;5455;53.224;6.000;2022-11-11T08:37:47;14.93;;;8.43;;
10805;SDS011;5455;53.224;6.000;2022-11-11T08:40:33;21.90;;;12.57;;
10805;SDS011;5455;53.224;6.000;2022-11-11T08:43:19;17.50;;;11.10;;
10805;SDS011;5455;53.224;6.000;2022-11-11T08:46:06;19.03;;;10.37;;
10805;SDS011;5455;53.224;6.000;2022-11-11T08:48:52;15.60;;;10.30;;
10805;SDS011;5455;53.224;6.000;2022-11-11T08:51:38;20.73;;;10.30;;
10805;SDS011;5455;53.224;6.000;2022-11-11T08:54:29;17.30;;;10.73;;
10805;SDS011;5455;53.224;6.000;2022-11-11T08:57:14;18.40;;;9.60;;
10805;SDS011;5455;53.224;6.000;2022-11-11T08:59:59;15.60;;;10.27;;
10805;SDS011;5455;53.224;6.000;2022-11-11T09:02:45;12.63;;;8.40;;
10805;SDS011;5455;53.224;6.000;2022-11-11T09:05:30;18.43;;;10.40;;
10805;SDS011;5455;53.224;6.000;2022-11-11T09:08:17;15.77;;;10.47;;
10805;SDS011;5455;53.224;6.000;2022-11-11T09:11:02;17.63;;;10.97;;
10805;SDS011;5455;53.224;6.000;2022-11-11T09:13:48;18.47;;;11.53;;
10805;SDS011;5455;53.224;6.000;2022-11-11T09:16:33;20.10;;;11.20;;
10805;SDS011;5455;53.224;6.000;2022-11-11T09:19:20;20.07;;;11.07;;
10805;SDS011;5455;53.224;6.000;2022-11-11T09:22:06;18.00;;;10.47;;
10805;SDS011;5455;53.224;6.000;2022-11-11T09:24:52;16.63;;;10.37;;
10805;SDS011;5455;53.224;6.000;2022-11-11T09:27:37;20.27;;;10.87;;
10805;SDS011;5455;53.224;6.000;2022-11-11T09:30:23;18.63;;;10.60;;
10805;SDS011;5455;53.224;6.000;2022-11-11T09:33:10;17.20;;;10.17;;
10805;SDS011;5455;53.224;6.000;2022-11-11T09:35:57;18.53;;;10.33;;
10805;SDS011;5455;53.224;6.000;2022-11-11T09:38:43;15.13;;;9.87;;
10805;SDS011;5455;53.224;6.000;2022-11-11T09:47:58;17.67;;;10.93;;
10805;SDS011;5455;53.224;6.000;2022-11-11T09:50:53;22.10;;;12.83;;
10805;SDS011;5455;53.224;6.000;2022-11-11T09:53:46;17.70;;;10.93;;
10805;SDS011;5455;53.224;6.000;2022-11-11T09:56:37;18.27;;;11.40;;
10805;SDS011;5455;53.224;6.000;2022-11-11T09:59:24;16.20;;;9.80;;
10805;SDS011;5455;53.224;6.000;2022-11-11T10:02:19;15.17;;;9.93;;
10805;SDS011;5455;53.224;6.000;2022-11-11T10:05:21;18.60;;;10.27;;
10805;SDS011;5455;53.224;6.000;2022-11-11T10:08:16;16.67;;;10.23;;
10805;SDS011;5455;53.224;6.000;2022-11-11T10:11:56;21.00;;;10.97;;
10805;SDS011;5455;53.224;6.000;2022-11-11T10:14:32;17.17;;;9.73;;
10805;SDS011;5455;53.224;6.000;2022-11-11T10:17:31;14.63;;;9.73;;
10805;SDS011;5455;53.224;6.000;2022-11-11T10:23:13;15.93;;;10.10;;
10805;SDS011;5455;53.224;6.000;2022-11-11T10:26:13;17.40;;;10.60;;
10805;SDS011;5455;53.224;6.000;2022-11-11T10:29:05;16.77;;;10.23;;
10805;SDS011;5455;53.224;6.000;2022-11-11T10:32:12;16.57;;;10.73;;
10805;SDS011;5455;53.224;6.000;2022-11-11T10:35:19;18.03;;;10.77;;
10805;SDS011;5455;53.224;6.000;2022-11-11T10:40:56;16.10;;;10.43;;
10805;SDS011;5455;53.224;6.000;2022-11-11T10:43:47;18.90;;;11.20;;
10805;SDS011;5455;53.224;6.000;2022-11-11T10:46:35;14.70;;;10.17;;
10805;SDS011;5455;53.224;6.000;2022-11-11T10:49:26;16.43;;;9.90;;
10805;SDS011;5455;53.224;6.000;2022-11-11T10:52:23;15.47;;;9.40;;
10805;SDS011;5455;53.224;6.000;2022-11-11T10:55:35;13.70;;;9.33;;
10805;SDS011;5455;53.224;6.000;2022-11-11T10:58:42;15.77;;;9.50;;
10805;SDS011;5455;53.224;6.000;2022-11-11T11:01:34;15.67;;;9.40;;
10805;SDS011;5455;53.224;6.000;2022-11-11T11:07:36;15.73;;;9.43;;
10805;SDS011;5455;53.224;6.000;2022-11-11T11:10:31;14.20;;;9.40;;
10805;SDS011;5455;53.224;6.000;2022-11-11T11:13:40;14.07;;;9.37;;
10805;SDS011;5455;53.224;6.000;2022-11-11T11:16:31;14.17;;;8.70;;
10805;SDS011;5455;53.224;6.000;2022-11-11T11:19:21;13.40;;;9.00;;
10805;SDS011;5455;53.224;6.000;2022-11-11T11:22:09;13.90;;;9.03;;
10805;SDS011;5455;53.224;6.000;2022-11-11T11:25:07;13.47;;;9.43;;
10805;SDS011;5455;53.224;6.000;2022-11-11T11:28:06;14.67;;;10.00;;
10805;SDS011;5455;53.224;6.000;2022-11-11T11:33:52;14.07;;;9.10;;
10805;SDS011;5455;53.224;6.000;2022-11-11T11:36:39;13.77;;;9.50;;
10805;SDS011;5455;53.224;6.000;2022-11-11T11:39:35;13.93;;;9.13;;
10805;SDS011;5455;53.224;6.000;2022-11-11T11:42:35;12.97;;;7.47;;
10805;SDS011;5455;53.224;6.000;2022-11-11T11:45:26;14.07;;;8.73;;
10805;SDS011;5455;53.224;6.000;2022-11-11T11:51:22;16.50;;;9.73;;
10805;SDS011;5455;53.224;6.000;2022-11-11T11:57:43;15.50;;;8.90;;
10805;SDS011;5455;53.224;6.000;2022-11-11T12:00:36;16.10;;;9.13;;
10805;SDS011;5455;53.224;6.000;2022-11-11T12:09:42;12.43;;;8.33;;
10805;SDS011;5455;53.224;6.000;2022-11-11T12:12:47;14.67;;;8.83;;
10805;SDS011;5455;53.224;6.000;2022-11-11T12:15:39;15.23;;;9.63;;
10805;SDS011;5455;53.224;6.000;2022-11-11T12:34:32;12.23;;;8.77;;
10805;SDS011;5455;53.224;6.000;2022-11-11T12:49:35;15.47;;;9.37;;
10805;SDS011;5455;53.224;6.000;2022-11-11T12:55:32;14.90;;;9.47;;
10805;SDS011;5455;53.224;6.000;2022-11-11T12:58:38;14.33;;;9.80;;
10805;SDS011;5455;53.224;6.000;2022-11-11T13:01:54;14.97;;;8.87;;
10805;SDS011;5455;53.224;6.000;2022-11-11T13:05:18;15.20;;;8.77;;
10805;SDS011;5455;53.224;6.000;2022-11-11T13:17:17;13.50;;;9.23;;
10805;SDS011;5455;53.224;6.000;2022-11-11T13:20:05;16.07;;;8.93;;
10805;SDS011;5455;53.224;6.000;2022-11-11T13:23:07;12.47;;;9.07;;
10805;SDS011;5455;53.224;6.000;2022-11-11T13:25:57;13.87;;;8.97;;
10805;SDS011;5455;53.224;6.000;2022-11-11T13:28:48;11.77;;;9.03;;
10805;SDS011;5455;53.224;6.000;2022-11-11T13:31:39;16.13;;;8.43;;
10805;SDS011;5455;53.224;6.000;2022-11-11T13:34:27;15.40;;;9.20;;
10805;SDS011;5455;53.224;6.000;2022-11-11T13:37:24;12.67;;;8.80;;
10805;SDS011;5455;53.224;6.000;2022-11-11T13:49:27;13.27;;;8.80;;
10805;SDS011;5455;53.224;6.000;2022-11-11T13:52:18;19.43;;;13.07;;
10805;SDS011;5455;53.224;6.000;2022-11-11T13:55:32;18.50;;;11.03;;
10805;SDS011;5455;53.224;6.000;2022-11-11T13:58:25;16.93;;;8.93;;
10805;SDS011;5455;53.224;6.000;2022-11-11T14:01:14;14.93;;;9.00;;
10805;SDS011;5455;53.224;6.000;2022-11-11T14:04:03;16.17;;;9.33;;
10805;SDS011;5455;53.224;6.000;2022-11-11T14:06:50;12.90;;;8.33;;
10805;SDS011;5455;53.224;6.000;2022-11-11T14:16:09;12.90;;;7.50;;
10805;SDS011;5455;53.224;6.000;2022-11-11T14:18:55;11.43;;;8.10;;
10805;SDS011;5455;53.224;6.000;2022-11-11T14:21:42;11.37;;;7.43;;
10805;SDS011;5455;53.224;6.000;2022-11-11T14:24:44;11.87;;;8.17;;
10805;SDS011;5455;53.224;6.000;2022-11-11T14:27:31;10.60;;;7.27;;
10805;SDS011;5455;53.224;6.000;2022-11-11T14:39:38;10.40;;;7.83;;
10805;SDS011;5455;53.224;6.000;2022-11-11T14:42:50;12.03;;;8.67;;
10805;SDS011;5455;53.224;6.000;2022-11-11T14:55:03;10.80;;;7.67;;
10805;SDS011;5455;53.224;6.000;2022-11-11T14:57:57;11.93;;;8.47;;
10805;SDS011;5455;53.224;6.000;2022-11-11T15:00:57;13.03;;;7.77;;
10805;SDS011;5455;53.224;6.000;2022-11-11T15:03:50;12.57;;;8.23;;
10805;SDS011;5455;53.224;6.000;2022-11-11T15:06:40;15.40;;;8.13;;
10805;SDS011;5455;53.224;6.000;2022-11-11T15:12:44;12.97;;;8.10;;
10805;SDS011;5455;53.224;6.000;2022-11-11T15:16:04;12.90;;;8.20;;
10805;SDS011;5455;53.224;6.000;2022-11-11T15:31:21;14.17;;;8.40;;
10805;SDS011;5455;53.224;6.000;2022-11-11T15:34:10;12.03;;;8.23;;
10805;SDS011;5455;53.224;6.000;2022-11-11T15:37:19;13.37;;;8.27;;
10805;SDS011;5455;53.224;6.000;2022-11-11T15:40:17;11.73;;;7.47;;
10805;SDS011;5455;53.224;6.000;2022-11-11T15:43:11;13.47;;;8.00;;
10805;SDS011;5455;53.224;6.000;2022-11-11T15:46:00;10.40;;;7.30;;
10805;SDS011;5455;53.224;6.000;2022-11-11T15:48:47;11.37;;;7.77;;
10805;SDS011;5455;53.224;6.000;2022-11-11T15:51:35;14.23;;;8.23;;
10805;SDS011;5455;53.224;6.000;2022-11-11T15:54:21;12.00;;;7.73;;
10805;SDS011;5455;53.224;6.000;2022-11-11T16:03:13;9.90;;;7.83;;
10805;SDS011;5455;53.224;6.000;2022-11-11T16:06:13;11.10;;;8.23;;
10805;SDS011;5455;53.224;6.000;2022-11-11T16:09:00;11.73;;;8.10;;
10805;SDS011;5455;53.224;6.000;2022-11-11T16:11:47;11.27;;;8.27;;
10805;SDS011;5455;53.224;6.000;2022-11-11T16:14:37;13.10;;;8.30;;
10805;SDS011;5455;53.224;6.000;2022-11-11T16:17:29;15.37;;;10.20;;
10805;SDS011;5455;53.224;6.000;2022-11-11T16:20:24;17.00;;;11.07;;
10805;SDS011;5455;53.224;6.000;2022-11-11T16:23:15;13.80;;;10.67;;
10805;SDS011;5455;53.224;6.000;2022-11-11T16:26:03;15.07;;;10.33;;
10805;SDS011;5455;53.224;6.000;2022-11-11T16:28:50;14.63;;;10.60;;
10805;SDS011;5455;53.224;6.000;2022-11-11T16:31:37;14.93;;;10.60;;
10805;SDS011;5455;53.224;6.000;2022-11-11T16:37:15;13.13;;;8.93;;
10805;SDS011;5455;53.224;6.000;2022-11-11T16:43:19;14.27;;;10.17;;
10805;SDS011;5455;53.224;6.000;2022-11-11T16:46:53;15.80;;;10.63;;
10805;SDS011;5455;53.224;6.000;2022-11-11T16:49:20;14.63;;;10.87;;
10805;SDS011;5455;53.224;6.000;2022-11-11T16:52:18;13.60;;;10.60;;
10805;SDS011;5455;53.224;6.000;2022-11-11T16:55:08;19.70;;;10.90;;
10805;SDS011;5455;53.224;6.000;2022-11-11T16:58:01;14.27;;;11.30;;
10805;SDS011;5455;53.224;6.000;2022-11-11T17:00:57;17.40;;;10.47;;
10805;SDS011;5455;53.224;6.000;2022-11-11T17:03:51;13.83;;;10.43;;
10805;SDS011;5455;53.224;6.000;2022-11-11T17:09:38;15.53;;;10.50;;
10805;SDS011;5455;53.224;6.000;2022-11-11T17:12:30;20.60;;;11.83;;
10805;SDS011;5455;53.224;6.000;2022-11-11T17:15:17;19.03;;;11.23;;
10805;SDS011;5455;53.224;6.000;2022-11-11T17:18:05;15.97;;;11.17;;
10805;SDS011;5455;53.224;6.000;2022-11-11T17:20:53;16.83;;;10.90;;
10805;SDS011;5455;53.224;6.000;2022-11-11T17:23:39;15.70;;;10.57;;
10805;SDS011;5455;53.224;6.000;2022-11-11T17:26:25;16.47;;;10.23;;
10805;SDS011;5455;53.224;6.000;2022-11-11T17:29:10;17.63;;;11.70;;
10805;SDS011;5455;53.224;6.000;2022-11-11T17:31:56;17.20;;;11.57;;
10805;SDS011;5455;53.224;6.000;2022-11-11T17:34:42;16.27;;;11.83;;
10805;SDS011;5455;53.224;6.000;2022-11-11T17:37:28;15.17;;;10.00;;
10805;SDS011;5455;53.224;6.000;2022-11-11T17:40:18;17.03;;;11.40;;
10805;SDS011;5455;53.224;6.000;2022-11-11T17:43:03;17.57;;;11.13;;
10805;SDS011;5455;53.224;6.000;2022-11-11T17:45:49;17.97;;;11.10;;
10805;SDS011;5455;53.224;6.000;2022-11-11T17:48:35;16.73;;;11.13;;
10805;SDS011;5455;53.224;6.000;2022-11-11T17:51:21;13.90;;;9.77;;
10805;SDS011;5455;53.224;6.000;2022-11-11T17:54:08;16.97;;;10.13;;
10805;SDS011;5455;53.224;6.000;2022-11-11T17:56:55;15.40;;;10.00;;
10805;SDS011;5455;53.224;6.000;2022-11-11T17:59:40;16.83;;;11.10;;
10805;SDS011;5455;53.224;6.000;2022-11-11T18:02:25;16.67;;;10.43;;
10805;SDS011;5455;53.224;6.000;2022-11-11T18:05:11;15.63;;;10.33;;
10805;SDS011;5455;53.224;6.000;2022-11-11T18:07:58;17.50;;;10.63;;
10805;SDS011;5455;53.224;6.000;2022-11-11T18:10:43;18.83;;;10.43;;
10805;SDS011;5455;53.224;6.000;2022-11-11T18:13:29;17.37;;;10.00;;
10805;SDS011;5455;53.224;6.000;2022-11-11T18:16:15;17.97;;;10.63;;
10805;SDS011;5455;53.224;6.000;2022-11-11T18:19:02;14.50;;;9.90;;
10805;SDS011;5455;53.224;6.000;2022-11-11T18:21:48;14.67;;;9.40;;
10805;SDS011;5455;53.224;6.000;2022-11-11T18:24:34;20.37;;;10.27;;
10805;SDS011;5455;53.224;6.000;2022-11-11T18:27:20;16.00;;;9.90;;
10805;SDS011;5455;53.224;6.000;2022-11-11T18:30:06;17.00;;;8.83;;
10805;SDS011;5455;53.224;6.000;2022-11-11T18:32:52;17.17;;;10.27;;
10805;SDS011;5455;53.224;6.000;2022-11-11T18:35:37;17.43;;;9.40;;
10805;SDS011;5455;53.224;6.000;2022-11-11T18:38:22;22.27;;;10.33;;
10805;SDS011;5455;53.224;6.000;2022-11-11T18:43:58;17.60;;;10.63;;
10805;SDS011;5455;53.224;6.000;2022-11-11T18:46:44;17.97;;;9.67;;
10805;SDS011;5455;53.224;6.000;2022-11-11T18:49:29;15.83;;;9.73;;
10805;SDS011;5455;53.224;6.000;2022-11-11T18:52:14;15.93;;;10.17;;
10805;SDS011;5455;53.224;6.000;2022-11-11T18:55:00;17.20;;;10.23;;
10805;SDS011;5455;53.224;6.000;2022-11-11T18:57:45;14.13;;;9.00;;
10805;SDS011;5455;53.224;6.000;2022-11-11T19:00:31;14.90;;;9.10;;
10805;SDS011;5455;53.224;6.000;2022-11-11T19:03:17;13.67;;;8.97;;
10805;SDS011;5455;53.224;6.000;2022-11-11T19:06:03;16.07;;;9.43;;
10805;SDS011;5455;53.224;6.000;2022-11-11T19:08:55;15.00;;;9.80;;
10805;SDS011;5455;53.224;6.000;2022-11-11T19:11:43;16.07;;;9.97;;
10805;SDS011;5455;53.224;6.000;2022-11-11T19:14:30;16.93;;;10.67;;
10805;SDS011;5455;53.224;6.000;2022-11-11T19:17:15;18.63;;;10.20;;
10805;SDS011;5455;53.224;6.000;2022-11-11T19:20:02;14.63;;;9.17;;
10805;SDS011;5455;53.224;6.000;2022-11-11T19:22:48;16.83;;;9.80;;
10805;SDS011;5455;53.224;6.000;2022-11-11T19:25:33;16.73;;;9.87;;
10805;SDS011;5455;53.224;6.000;2022-11-11T19:28:20;14.80;;;9.53;;
10805;SDS011;5455;53.224;6.000;2022-11-11T19:31:08;12.57;;;9.23;;
10805;SDS011;5455;53.224;6.000;2022-11-11T19:33:55;14.63;;;9.37;;